| time (UTC) | temp F | wind direction | speed knots | gust knots | rain 1hr in | rain 24hr in | rain mn in | humidity % | barometer mb |
| 20260507101657 | 49 | 39 | 2.6 | 6.1 | 0.19 | 0.55 | 0.22 | 97 | 1006.0 |
| 20260507101154 | 49 | 11 | 3.5 | 7.8 | 0.18 | 0.54 | 0.21 | 97 | 1006.1 |
| 20260507100654 | 49 | 304 | 3.5 | 7.8 | 0.17 | 0.53 | 0.21 | 97 | 1006.1 |
| 20260507100154 | 49 | 30 | 2.6 | 8.7 | 0.16 | 0.52 | 0.20 | 97 | 1005.5 |
| 20260507095652 | 49 | 5 | 3.5 | 11.3 | 0.17 | 0.52 | 0.19 | 97 | 1005.6 |
| 20260507095152 | 50 | 355 | 4.3 | 11.3 | 0.18 | 0.51 | 0.18 | 96 | 1005.4 |
| 20260507094653 | 50 | 28 | 3.5 | 9.6 | 0.16 | 0.49 | 0.17 | 96 | 1005.5 |
| 20260507094152 | 51 | 30 | 3.5 | 9.6 | 0.08 | 0.41 | 0.10 | 96 | 1006.1 |
| 20260507093650 | 52 | 323 | 3.5 | 7.0 | 0.07 | 0.40 | 0.07 | 96 | 1006.0 |
| 20260507093152 | 53 | 24 | 2.6 | 7.8 | 0.06 | 0.39 | 0.06 | 97 | 1005.3 |
| 20260507092653 | 53 | 5 | 1.7 | 7.8 | 0.05 | 0.38 | 0.05 | 97 | 1005.4 |
| 20260507092151 | 54 | 19 | 0.9 | 4.3 | 0.04 | 0.37 | 0.04 | 98 | 1005.5 |
| 20260507091651 | 53 | 327 | 0.9 | 2.6 | 0.03 | 0.36 | 0.03 | 98 | 1005.3 |
| 20260507091151 | 53 | 30 | 0.9 | 3.5 | 0.03 | 0.36 | 0.03 | 98 | 1005.3 |
| 20260507090647 | 53 | 302 | 0.9 | 3.5 | 0.03 | 0.36 | 0.03 | 98 | 1005.5 |
| 20260507090148 | 53 | 290 | 0.9 | 4.3 | 0.03 | 0.36 | 0.03 | 97 | 1005.6 |
| 20260507085645 | 53 | 325 | 1.7 | 5.2 | 0.02 | 0.35 | 0.02 | 97 | 1005.7 |
| 20260507085143 | 53 | 271 | 1.7 | 6.1 | 0.00 | 0.33 | 0.00 | 97 | 1006.1 |
| 20260507084643 | 53 | 279 | 1.7 | 6.1 | 0.00 | 0.33 | 0.00 | 97 | 1005.9 |
| 20260507084137 | 53 | 298 | 1.7 | 4.3 | 0.00 | 0.33 | 0.00 | 97 | 1005.8 |
| 20260507083635 | 53 | 229 | 0.9 | 4.3 | 0.00 | 0.33 | 0.00 | 97 | 1005.4 |
| 20260507083134 | 53 | 223 | 0.9 | 3.5 | 0.00 | 0.33 | 0.00 | 97 | 1005.3 |
| 20260507082636 | 53 | 229 | 0.9 | 4.3 | 0.00 | 0.33 | 0.00 | 97 | 1004.9 |
| 20260507082135 | 53 | 149 | 1.7 | 4.3 | 0.00 | 0.33 | 0.00 | 97 | 1004.9 |
| 20260507081633 | 53 | 179 | 1.7 | 3.5 | 0.00 | 0.33 | 0.00 | 97 | 1004.8 |
| 20260507081134 | 53 | 151 | 0.9 | 4.3 | 0.00 | 0.33 | 0.00 | 97 | 1004.9 |
| 20260507080631 | 54 | 199 | 0.9 | 4.3 | 0.00 | 0.33 | 0.00 | 97 | 1004.8 |
| 20260507080130 | 54 | 172 | 0.9 | 4.3 | 0.00 | 0.33 | 0.00 | 97 | 1004.8 |
| 20260507075622 | 54 | 161 | 0.0 | 3.5 | 0.00 | 0.33 | 0.00 | 97 | 1004.9 |
| 20260507075124 | 54 | 161 | 0.9 | 3.5 | 0.00 | 0.33 | 0.00 | 97 | 1004.9 |
| 20260507074608 | 54 | 164 | 0.9 | 3.5 | 0.00 | 0.33 | 0.00 | 97 | 1004.9 |
| 20260507074051 | 54 | 157 | 0.9 | 3.5 | 0.00 | 0.33 | 0.00 | 97 | 1004.9 |
| 20260507073553 | 54 | 170 | 0.9 | 3.5 | 0.00 | 0.33 | 0.00 | 97 | 1005.0 |
| 20260507073034 | 54 | 199 | 0.9 | 3.5 | 0.00 | 0.33 | 0.00 | 97 | 1005.2 |
| 20260507072536 | 54 | 159 | 0.9 | 3.5 | 0.00 | 0.33 | 0.00 | 97 | 1005.2 |
| 20260507072029 | 54 | 200 | 0.9 | 3.5 | 0.00 | 0.33 | 0.00 | 97 | 1005.4 |
| 20260507071530 | 54 | 169 | 0.9 | 4.3 | 0.00 | 0.33 | 0.00 | 97 | 1005.4 |
| 20260507071022 | 54 | 169 | 0.9 | 4.3 | 0.00 | 0.33 | 0.00 | 97 | 1005.7 |
| 20260507070515 | 54 | 169 | 0.0 | 3.5 | 0.00 | 0.33 | 0.00 | 97 | 1005.8 |
| 20260507070014 | 54 | 123 | 0.0 | 0.9 | 0.00 | 0.33 | 0.00 | 97 | 1005.5 |
| 20260507065507 | 54 | 84 | 0.0 | 0.9 | 0.00 | 0.33 | 0.00 | 97 | 1005.2 |
| 20260507065003 | 54 | 84 | 0.0 | 1.7 | 0.00 | 0.33 | 0.00 | 97 | 1005.3 |
| 20260507064503 | 54 | 84 | 0.9 | 3.5 | 0.00 | 0.33 | 0.00 | 97 | 1005.1 |
| 20260507063957 | 54 | 177 | 0.9 | 3.5 | 0.00 | 0.33 | 0.00 | 97 | 1005.5 |
| 20260507063457 | 54 | 254 | 0.9 | 3.5 | 0.00 | 0.33 | 0.00 | 97 | 1005.5 |
| 20260507062950 | 54 | 230 | 0.9 | 4.3 | 0.00 | 0.33 | 0.00 | 97 | 1005.5 |
| 20260507062449 | 54 | 190 | 1.7 | 4.3 | 0.00 | 0.33 | 0.00 | 97 | 1005.5 |
| 20260507061946 | 54 | 190 | 1.7 | 6.1 | 0.00 | 0.33 | 0.00 | 97 | 1005.6 |
| 20260507061444 | 54 | 257 | 1.7 | 6.1 | 0.00 | 0.33 | 0.00 | 97 | 1005.6 |
| 20260507060947 | 54 | 259 | 1.7 | 5.2 | 0.00 | 0.33 | 0.00 | 97 | 1005.6 |
| 20260507060443 | 55 | 219 | 2.6 | 7.8 | 0.00 | 0.33 | 0.00 | 97 | 1005.5 |
| 20260507055943 | 55 | 235 | 2.6 | 8.7 | 0.00 | 0.33 | 0.00 | 97 | 1005.5 |
| 20260507055442 | 55 | 171 | 2.6 | 8.7 | 0.00 | 0.33 | 0.00 | 97 | 1005.6 |
| 20260507054943 | 55 | 203 | 2.6 | 7.0 | 0.00 | 0.33 | 0.00 | 97 | 1005.8 |
| 20260507054432 | 55 | 230 | 2.6 | 8.7 | 0.00 | 0.33 | 0.00 | 97 | 1005.9 |
| 20260507053931 | 55 | 194 | 1.7 | 8.7 | 0.00 | 0.33 | 0.00 | 97 | 1006.0 |
| 20260507053430 | 55 | 196 | 2.6 | 8.7 | 0.00 | 0.33 | 0.00 | 97 | 1006.0 |
| 20260507052930 | 55 | 98 | 2.6 | 8.7 | 0.00 | 0.33 | 0.00 | 97 | 1006.2 |
| 20260507052431 | 55 | 246 | 2.6 | 8.7 | 0.00 | 0.33 | 0.00 | 97 | 1006.3 |
| 20260507051929 | 55 | 208 | 2.6 | 8.7 | 0.00 | 0.33 | 0.00 | 97 | 1006.5 |
| 20260507051428 | 55 | 245 | 3.5 | 8.7 | 0.00 | 0.33 | 0.00 | 97 | 1006.5 |
| 20260507050928 | 56 | 157 | 2.6 | 7.8 | 0.00 | 0.33 | 0.00 | 97 | 1006.5 |
| 20260507050426 | 56 | 227 | 2.6 | 7.0 | 0.00 | 0.33 | 0.00 | 97 | 1006.4 |
| 20260507045926 | 56 | 0 | 2.6 | 7.0 | 0.00 | 0.33 | 0.00 | 97 | 1006.4 |
| 20260507045427 | 56 | 279 | 2.6 | 7.0 | 0.00 | 0.33 | 0.00 | 97 | 1006.4 |
| 20260507044925 | 56 | 294 | 2.6 | 9.6 | 0.00 | 0.33 | 0.00 | 97 | 1006.3 |
| 20260507044425 | 56 | 207 | 3.5 | 9.6 | 0.00 | 0.33 | 0.00 | 97 | 1006.3 |
| 20260507043924 | 56 | 119 | 2.6 | 9.6 | 0.00 | 0.33 | 0.00 | 97 | 1006.4 |
| 20260507043426 | 56 | 263 | 2.6 | 8.7 | 0.00 | 0.33 | 0.00 | 97 | 1006.4 |
| 20260507042926 | 56 | 204 | 2.6 | 7.8 | 0.00 | 0.33 | 0.00 | 97 | 1006.5 |
| 20260507042424 | 56 | 253 | 2.6 | 7.8 | 0.00 | 0.33 | 0.00 | 97 | 1006.6 |
| 20260507041924 | 56 | 221 | 2.6 | 7.8 | 0.00 | 0.33 | 0.00 | 97 | 1006.7 |
| 20260507041424 | 56 | 247 | 2.6 | 8.7 | 0.00 | 0.33 | 0.00 | 97 | 1006.8 |
| 20260507040925 | 56 | 305 | 3.5 | 8.7 | 0.00 | 0.33 | 0.00 | 97 | 1006.7 |
| 20260507040425 | 56 | 232 | 3.5 | 11.3 | 0.00 | 0.33 | 0.00 | 97 | 1006.8 |
| 20260507035923 | 56 | 199 | 3.5 | 11.3 | 0.00 | 0.33 | 0.33 | 97 | 1006.6 |
| 20260507035422 | 56 | 231 | 3.5 | 9.6 | 0.00 | 0.33 | 0.33 | 97 | 1006.7 |
| 20260507034921 | 56 | 157 | 3.5 | 9.6 | 0.00 | 0.33 | 0.33 | 97 | 1006.7 |
| 20260507034423 | 56 | 180 | 3.5 | 9.6 | 0.00 | 0.33 | 0.33 | 97 | 1006.7 |
| 20260507033925 | 56 | 152 | 3.5 | 10.4 | 0.00 | 0.33 | 0.33 | 97 | 1006.8 |
| 20260507033419 | 56 | 203 | 3.5 | 10.4 | 0.00 | 0.33 | 0.33 | 97 | 1006.9 |
| 20260507032920 | 56 | 293 | 4.3 | 12.2 | 0.00 | 0.33 | 0.33 | 97 | 1006.7 |
| 20260507032416 | 56 | 222 | 4.3 | 12.2 | 0.00 | 0.33 | 0.33 | 97 | 1006.6 |
| 20260507031917 | 56 | 271 | 4.3 | 11.3 | 0.00 | 0.33 | 0.33 | 97 | 1006.4 |
| 20260507031420 | 56 | 159 | 3.5 | 11.3 | 0.00 | 0.33 | 0.33 | 97 | 1006.5 |
| 20260507030917 | 56 | 166 | 3.5 | 10.4 | 0.00 | 0.33 | 0.33 | 97 | 1006.5 |
| 20260507030418 | 56 | 256 | 3.5 | 10.4 | 0.00 | 0.33 | 0.33 | 97 | 1006.4 |
| 20260507025915 | 56 | 158 | 3.5 | 9.6 | 0.00 | 0.33 | 0.33 | 97 | 1006.5 |
| 20260507025414 | 56 | 286 | 4.3 | 9.6 | 0.00 | 0.33 | 0.33 | 97 | 1006.6 |
| 20260507024915 | 56 | 162 | 4.3 | 13.0 | 0.00 | 0.33 | 0.33 | 97 | 1006.7 |
| 20260507024412 | 56 | 188 | 5.2 | 13.9 | 0.00 | 0.33 | 0.33 | 97 | 1006.9 |
| 20260507023913 | 56 | 204 | 4.3 | 13.9 | 0.00 | 0.33 | 0.33 | 97 | 1007.2 |
| 20260507023412 | 56 | 228 | 4.3 | 10.4 | 0.00 | 0.33 | 0.33 | 97 | 1007.2 |
| 20260507022912 | 56 | 259 | 4.3 | 9.6 | 0.00 | 0.33 | 0.33 | 97 | 1007.2 |
| 20260507022409 | 56 | 196 | 3.5 | 9.6 | 0.00 | 0.33 | 0.33 | 96 | 1007.3 |
| 20260507021910 | 56 | 213 | 3.5 | 9.6 | 0.00 | 0.33 | 0.33 | 96 | 1007.3 |
| 20260507021409 | 56 | 188 | 4.3 | 10.4 | 0.01 | 0.33 | 0.33 | 96 | 1007.4 |
| 20260507020909 | 56 | 155 | 3.5 | 10.4 | 0.01 | 0.33 | 0.33 | 97 | 1007.4 |
| 20260507020410 | 56 | 236 | 3.5 | 11.3 | 0.01 | 0.33 | 0.33 | 97 | 1007.3 |
| 20260507015910 | 56 | 196 | 3.5 | 12.2 | 0.01 | 0.33 | 0.33 | 97 | 1007.4 |
| 20260507015411 | 56 | 208 | 4.3 | 12.2 | 0.01 | 0.33 | 0.33 | 97 | 1007.6 |
| 20260507014907 | 56 | 223 | 4.3 | 9.6 | 0.02 | 0.33 | 0.33 | 97 | 1007.6 |
| 20260507014410 | 56 | 186 | 4.3 | 10.4 | 0.03 | 0.33 | 0.33 | 97 | 1007.7 |
| 20260507013743 | 56 | 182 | 4.3 | 12.2 | 0.05 | 0.33 | 0.33 | 96 | 1007.8 |
| 20260507013242 | 56 | 228 | 4.3 | 12.2 | 0.07 | 0.33 | 0.33 | 96 | 1007.7 |
| 20260507012741 | 56 | 158 | 4.3 | 13.0 | 0.10 | 0.33 | 0.33 | 96 | 1007.6 |
| 20260507012241 | 56 | 228 | 4.3 | 14.8 | 0.13 | 0.33 | 0.33 | 96 | 1007.5 |
| 20260507011740 | 56 | 203 | 4.3 | 14.8 | 0.16 | 0.33 | 0.33 | 97 | 1007.8 |
| 20260507011241 | 56 | 183 | 4.3 | 13.0 | 0.17 | 0.32 | 0.32 | 96 | 1007.7 |
| 20260507010739 | 56 | 116 | 4.3 | 13.0 | 0.19 | 0.32 | 0.32 | 97 | 1007.8 |
| 20260507010238 | 56 | 263 | 4.3 | 11.3 | 0.19 | 0.32 | 0.32 | 97 | 1007.7 |
| 20260507005739 | 56 | 159 | 4.3 | 11.3 | 0.19 | 0.32 | 0.32 | 96 | 1007.7 |
| 20260507005236 | 56 | 214 | 3.5 | 8.7 | 0.20 | 0.32 | 0.32 | 96 | 1007.7 |
| 20260507004738 | 56 | 241 | 4.3 | 13.0 | 0.19 | 0.31 | 0.31 | 96 | 1007.8 |
| 20260507004236 | 56 | 204 | 5.2 | 13.0 | 0.19 | 0.30 | 0.30 | 96 | 1007.7 |
| 20260507003735 | 56 | 184 | 4.3 | 13.0 | 0.17 | 0.28 | 0.28 | 96 | 1007.7 |
| 20260507003237 | 56 | 159 | 4.3 | 10.4 | 0.16 | 0.26 | 0.27 | 96 | 1007.8 |
| 20260507002734 | 55 | 150 | 5.2 | 10.4 | 0.13 | 0.23 | 0.23 | 96 | 1007.9 |
| 20260507002233 | 55 | 147 | 5.2 | 11.3 | 0.11 | 0.20 | 0.20 | 96 | 1007.7 |
| 20260507001735 | 55 | 170 | 4.3 | 11.3 | 0.10 | 0.17 | 0.17 | 96 | 1007.6 |
| 20260507001232 | 55 | 189 | 4.3 | 12.2 | 0.10 | 0.15 | 0.15 | 96 | 1007.7 |
| 20260507000731 | 55 | 176 | 5.2 | 12.2 | 0.09 | 0.13 | 0.14 | 96 | 1007.7 |
| 20260507000234 | 55 | 171 | 4.3 | 12.2 | 0.09 | 0.13 | 0.13 | 95 | 1007.6 |
| 20260506235732 | 55 | 186 | 5.2 | 12.2 | 0.10 | 0.13 | 0.13 | 95 | 1007.8 |
| 20260506235231 | 55 | 141 | 5.2 | 12.2 | 0.11 | 0.12 | 0.12 | 95 | 1007.9 |
| 20260506234729 | 55 | 145 | 5.2 | 12.2 | 0.12 | 0.12 | 0.12 | 95 | 1007.9 |
| 20260506234229 | 55 | 132 | 5.2 | 12.2 | 0.11 | 0.11 | 0.11 | 95 | 1007.9 |
| 20260506233727 | 55 | 163 | 5.2 | 13.9 | 0.11 | 0.11 | 0.11 | 95 | 1007.9 |
| 20260506233225 | 55 | 146 | 6.1 | 13.9 | 0.10 | 0.10 | 0.10 | 94 | 1007.9 |
| 20260506232727 | 55 | 150 | 5.2 | 10.4 | 0.10 | 0.10 | 0.10 | 94 | 1008.2 |
| 20260506232227 | 56 | 278 | 5.2 | 11.3 | 0.09 | 0.09 | 0.09 | 94 | 1008.3 |
| 20260506231726 | 56 | 137 | 5.2 | 11.3 | 0.07 | 0.07 | 0.08 | 94 | 1008.3 |
| 20260506231227 | 56 | 176 | 5.2 | 14.8 | 0.05 | 0.05 | 0.05 | 93 | 1008.2 |
| 20260506230724 | 56 | 160 | 6.1 | 19.1 | 0.04 | 0.04 | 0.04 | 93 | 1008.3 |
| 20260506230223 | 56 | 198 | 5.2 | 19.1 | 0.04 | 0.04 | 0.04 | 92 | 1008.3 |
| 20260506225722 | 56 | 201 | 5.2 | 12.2 | 0.03 | 0.03 | 0.03 | 92 | 1008.3 |
| 20260506225222 | 57 | 239 | 5.2 | 12.2 | 0.01 | 0.01 | 0.02 | 90 | 1008.3 |
| 20260506224721 | 57 | 168 | 5.2 | 14.8 | 0.00 | 0.00 | 0.00 | 90 | 1008.5 |
| 20260506224223 | 57 | 222 | 5.2 | 14.8 | 0.00 | 0.00 | 0.00 | 90 | 1008.4 |
| 20260506223719 | 57 | 150 | 5.2 | 11.3 | 0.00 | 0.00 | 0.00 | 89 | 1008.3 |
| 20260506223220 | 58 | 240 | 4.3 | 11.3 | 0.00 | 0.00 | 0.00 | 89 | 1008.2 |
| 20260506222720 | 58 | 235 | 4.3 | 9.6 | 0.00 | 0.00 | 0.00 | 89 | 1008.3 |
| 20260506222219 | 58 | 156 | 4.3 | 11.3 | 0.00 | 0.00 | 0.00 | 89 | 1008.4 |
| 20260506221717 | 57 | 211 | 5.2 | 12.2 | 0.00 | 0.00 | 0.00 | 89 | 1008.3 |
| 20260506221218 | 57 | 144 | 5.2 | 12.2 | 0.00 | 0.00 | 0.00 | 88 | 1008.4 |
| 20260506220717 | 58 | 167 | 5.2 | 11.3 | 0.00 | 0.00 | 0.00 | 88 | 1008.6 |
| 20260506220219 | 58 | 155 | 5.2 | 12.2 | 0.00 | 0.00 | 0.00 | 88 | 1008.6 |
| 20260506215720 | 58 | 146 | 5.2 | 12.2 | 0.00 | 0.00 | 0.00 | 88 | 1008.5 |
| 20260506215217 | 58 | 198 | 5.2 | 12.2 | 0.00 | 0.00 | 0.00 | 89 | 1008.6 |
| 20260506214719 | 58 | 207 | 5.2 | 12.2 | 0.00 | 0.00 | 0.00 | 89 | 1008.6 |
| 20260506214205 | 58 | 205 | 5.2 | 10.4 | 0.00 | 0.00 | 0.00 | 88 | 1008.7 |
| 20260506213704 | 58 | 146 | 5.2 | 12.2 | 0.00 | 0.00 | 0.00 | 88 | 1008.8 |
| 20260506213202 | 58 | 147 | 5.2 | 13.0 | 0.00 | 0.00 | 0.00 | 87 | 1008.8 |
| 20260506212703 | 58 | 191 | 5.2 | 13.0 | 0.00 | 0.00 | 0.00 | 87 | 1008.8 |
| 20260506212201 | 58 | 155 | 5.2 | 10.4 | 0.00 | 0.00 | 0.00 | 87 | 1008.7 |
| 20260506211702 | 58 | 285 | 5.2 | 11.3 | 0.00 | 0.00 | 0.00 | 87 | 1008.7 |
| 20260506211159 | 58 | 164 | 4.3 | 11.3 | 0.00 | 0.00 | 0.00 | 87 | 1008.8 |
| 20260506210659 | 58 | 190 | 5.2 | 14.8 | 0.00 | 0.00 | 0.00 | 87 | 1008.7 |
| 20260506210201 | 58 | 150 | 5.2 | 14.8 | 0.00 | 0.00 | 0.00 | 87 | 1008.7 |
| 20260506205659 | 58 | 222 | 5.2 | 11.3 | 0.00 | 0.00 | 0.00 | 87 | 1008.8 |
| 20260506205201 | 58 | 175 | 5.2 | 15.6 | 0.00 | 0.00 | 0.00 | 87 | 1008.9 |
| 20260506204658 | 58 | 189 | 6.1 | 15.6 | 0.00 | 0.00 | 0.00 | 86 | 1009.0 |
| 20260506204159 | 59 | 211 | 6.1 | 13.0 | 0.00 | 0.00 | 0.00 | 86 | 1009.1 |
| 20260506203658 | 59 | 217 | 6.1 | 13.0 | 0.00 | 0.00 | 0.00 | 86 | 1009.1 |
| 20260506203159 | 59 | 190 | 5.2 | 15.6 | 0.00 | 0.00 | 0.00 | 85 | 1009.4 |
| 20260506202702 | 59 | 188 | 5.2 | 15.6 | 0.00 | 0.00 | 0.00 | 86 | 1009.4 |
| 20260506202153 | 59 | 128 | 5.2 | 12.2 | 0.00 | 0.00 | 0.00 | 86 | 1009.4 |
| 20260506201651 | 59 | 175 | 5.2 | 10.4 | 0.00 | 0.00 | 0.00 | 85 | 1009.3 |
| 20260506201152 | 59 | 161 | 4.3 | 8.7 | 0.00 | 0.00 | 0.00 | 85 | 1009.4 |
| 20260506200652 | 60 | 240 | 4.3 | 10.4 | 0.00 | 0.00 | 0.00 | 84 | 1009.5 |
| 20260506200151 | 60 | 153 | 5.2 | 10.4 | 0.00 | 0.00 | 0.00 | 84 | 1009.6 |
| 20260506195650 | 60 | 150 | 5.2 | 13.0 | 0.00 | 0.00 | 0.00 | 85 | 1009.7 |
| 20260506195152 | 60 | 173 | 6.1 | 13.0 | 0.00 | 0.00 | 0.00 | 85 | 1009.6 |
| 20260506194649 | 60 | 155 | 6.1 | 13.0 | 0.00 | 0.00 | 0.00 | 85 | 1009.6 |
| 20260506194149 | 60 | 213 | 6.1 | 13.0 | 0.00 | 0.00 | 0.00 | 85 | 1009.6 |
| 20260506193646 | 59 | 173 | 5.2 | 15.6 | 0.00 | 0.00 | 0.00 | 85 | 1009.5 |
| 20260506193146 | 59 | 144 | 6.1 | 15.6 | 0.00 | 0.00 | 0.00 | 85 | 1009.6 |
| 20260506192646 | 59 | 196 | 5.2 | 13.0 | 0.00 | 0.00 | 0.00 | 85 | 1009.5 |
| 20260506192146 | 60 | 216 | 5.2 | 14.8 | 0.00 | 0.00 | 0.00 | 85 | 1009.6 |
| 20260506191645 | 60 | 120 | 6.1 | 14.8 | 0.00 | 0.00 | 0.00 | 84 | 1009.6 |
| 20260506191146 | 60 | 145 | 6.1 | 12.2 | 0.00 | 0.00 | 0.00 | 84 | 1009.7 |
| 20260506190644 | 60 | 148 | 5.2 | 12.2 | 0.00 | 0.00 | 0.00 | 84 | 1009.8 |
| 20260506190143 | 60 | 159 | 5.2 | 10.4 | 0.00 | 0.00 | 0.00 | 84 | 1009.8 |
| 20260506185642 | 60 | 186 | 5.2 | 13.9 | 0.00 | 0.00 | 0.00 | 84 | 1010.0 |
| 20260506185143 | 60 | 123 | 4.3 | 13.9 | 0.00 | 0.00 | 0.00 | 84 | 1010.2 |
| 20260506184641 | 60 | 146 | 5.2 | 13.0 | 0.00 | 0.00 | 0.00 | 84 | 1010.2 |
| 20260506184140 | 60 | 171 | 4.3 | 13.0 | 0.00 | 0.00 | 0.00 | 83 | 1010.5 |
| 20260506183642 | 60 | 162 | 5.2 | 12.2 | 0.00 | 0.00 | 0.00 | 83 | 1010.4 |
| 20260506183143 | 60 | 163 | 5.2 | 12.2 | 0.00 | 0.00 | 0.00 | 83 | 1010.6 |
| 20260506182643 | 61 | 145 | 5.2 | 13.9 | 0.00 | 0.00 | 0.00 | 82 | 1010.7 |
| 20260506182112 | 61 | 153 | 7.0 | 18.2 | 0.00 | 0.00 | 0.00 | 81 | 1010.8 |
| 20260506181610 | 62 | 180 | 7.0 | 18.2 | 0.00 | 0.00 | 0.00 | 80 | 1011.0 |
| 20260506181110 | 63 | 180 | 6.1 | 14.8 | 0.00 | 0.00 | 0.00 | 79 | 1011.1 |
| 20260506180609 | 64 | 163 | 5.2 | 15.6 | 0.00 | 0.00 | 0.00 | 79 | 1011.0 |
| 20260506180108 | 63 | 165 | 5.2 | 15.6 | 0.00 | 0.00 | 0.00 | 80 | 1011.1 |
| 20260506175608 | 62 | 219 | 5.2 | 13.0 | 0.00 | 0.00 | 0.00 | 81 | 1010.9 |
| 20260506175106 | 62 | 143 | 6.1 | 13.0 | 0.00 | 0.00 | 0.00 | 82 | 1010.9 |
| 20260506174606 | 62 | 192 | 6.1 | 13.0 | 0.00 | 0.00 | 0.00 | 81 | 1011.1 |
| 20260506174106 | 62 | 157 | 5.2 | 12.2 | 0.00 | 0.00 | 0.00 | 81 | 1010.7 |
| 20260506173607 | 62 | 223 | 5.2 | 11.3 | 0.00 | 0.00 | 0.00 | 82 | 1011.0 |
| 20260506173118 | 61 | 173 | 6.1 | 12.2 | 0.00 | 0.00 | 0.00 | 83 | 1010.9 |
| 20260506172604 | 61 | 235 | 6.1 | 12.2 | 0.00 | 0.00 | 0.00 | 83 | 1011.0 |
| 20260506172103 | 61 | 163 | 5.2 | 13.0 | 0.00 | 0.00 | 0.00 | 83 | 1011.3 |
| 20260506171604 | 61 | 166 | 5.2 | 15.6 | 0.00 | 0.00 | 0.00 | 83 | 1011.1 |
| 20260506171103 | 60 | 149 | 5.2 | 15.6 | 0.00 | 0.00 | 0.00 | 84 | 1011.3 |
| 20260506170603 | 60 | 140 | 6.1 | 12.2 | 0.00 | 0.00 | 0.00 | 83 | 1011.4 |
| 20260506170105 | 60 | 131 | 6.1 | 12.2 | 0.00 | 0.00 | 0.00 | 84 | 1011.5 |
| 20260506165602 | 61 | 202 | 5.2 | 12.2 | 0.00 | 0.00 | 0.00 | 83 | 1011.5 |
| 20260506165059 | 61 | 166 | 5.2 | 10.4 | 0.00 | 0.00 | 0.00 | 83 | 1011.6 |
| 20260506164601 | 61 | 208 | 5.2 | 10.4 | 0.00 | 0.00 | 0.00 | 82 | 1011.9 |
| 20260506164058 | 62 | 211 | 6.1 | 12.2 | 0.00 | 0.00 | 0.00 | 82 | 1011.8 |
| 20260506163557 | 62 | 158 | 6.1 | 12.2 | 0.00 | 0.00 | 0.00 | 81 | 1011.9 |
| 20260506163057 | 62 | 192 | 6.1 | 15.6 | 0.00 | 0.00 | 0.00 | 80 | 1011.9 |
| 20260506162556 | 63 | 267 | 6.1 | 15.6 | 0.00 | 0.00 | 0.00 | 80 | 1011.9 |
| 20260506162054 | 63 | 197 | 6.1 | 13.0 | 0.00 | 0.00 | 0.00 | 81 | 1011.8 |
| 20260506161556 | 63 | 163 | 6.1 | 13.0 | 0.00 | 0.00 | 0.00 | 82 | 1012.1 |
| 20260506161053 | 62 | 168 | 6.1 | 17.4 | 0.00 | 0.00 | 0.00 | 82 | 1012.0 |
| 20260506160553 | 62 | 109 | 7.0 | 17.4 | 0.00 | 0.00 | 0.00 | 81 | 1012.2 |
| 20260506160054 | 63 | 229 | 6.1 | 15.6 | 0.00 | 0.00 | 0.00 | 80 | 1012.3 |
| 20260506155552 | 63 | 178 | 6.1 | 13.9 | 0.00 | 0.00 | 0.00 | 80 | 1012.4 |
| 20260506155052 | 63 | 145 | 5.2 | 13.9 | 0.00 | 0.00 | 0.00 | 81 | 1012.5 |
| 20260506154550 | 63 | 211 | 6.1 | 11.3 | 0.00 | 0.00 | 0.00 | 80 | 1012.6 |
| 20260506154051 | 62 | 194 | 6.1 | 11.3 | 0.00 | 0.00 | 0.00 | 81 | 1012.7 |
| 20260506153550 | 62 | 168 | 6.1 | 12.2 | 0.00 | 0.00 | 0.00 | 82 | 1012.6 |
| 20260506153050 | 62 | 167 | 6.1 | 13.9 | 0.00 | 0.00 | 0.00 | 81 | 1012.6 |
| 20260506152549 | 62 | 197 | 6.1 | 13.9 | 0.00 | 0.00 | 0.00 | 82 | 1012.6 |
| 20260506152049 | 61 | 174 | 6.1 | 13.0 | 0.00 | 0.00 | 0.00 | 83 | 1012.5 |
| 20260506151548 | 60 | 144 | 6.1 | 14.8 | 0.00 | 0.00 | 0.00 | 84 | 1012.7 |
| 20260506151049 | 60 | 192 | 5.2 | 14.8 | 0.00 | 0.00 | 0.00 | 83 | 1012.6 |
| 20260506150547 | 61 | 232 | 5.2 | 13.9 | 0.00 | 0.00 | 0.00 | 83 | 1012.6 |
| 20260506150045 | 61 | 119 | 6.1 | 13.0 | 0.00 | 0.00 | 0.00 | 83 | 1012.4 |
| 20260506145544 | 60 | 165 | 5.2 | 13.0 | 0.00 | 0.00 | 0.00 | 82 | 1012.5 |
| 20260506145045 | 61 | 186 | 5.2 | 12.2 | 0.00 | 0.00 | 0.00 | 84 | 1012.5 |
| 20260506144543 | 60 | 175 | 6.1 | 13.0 | 0.00 | 0.00 | 0.00 | 83 | 1012.3 |
| 20260506144044 | 61 | 233 | 6.1 | 13.9 | 0.00 | 0.00 | 0.00 | 82 | 1012.4 |
| 20260506143542 | 61 | 174 | 6.1 | 13.9 | 0.00 | 0.00 | 0.00 | 82 | 1012.5 |
| 20260506143041 | 62 | 143 | 6.1 | 13.0 | 0.00 | 0.00 | 0.00 | 81 | 1012.6 |
| 20260506142542 | 62 | 167 | 6.1 | 13.0 | 0.00 | 0.00 | 0.00 | 82 | 1012.7 |
| 20260506142039 | 62 | 239 | 6.1 | 13.0 | 0.00 | 0.00 | 0.00 | 81 | 1012.7 |
| 20260506141538 | 62 | 165 | 6.1 | 13.0 | 0.00 | 0.00 | 0.00 | 81 | 1012.8 |
| 20260506141039 | 62 | 146 | 5.2 | 13.0 | 0.00 | 0.00 | 0.00 | 81 | 1012.8 |
| 20260506140538 | 62 | 220 | 5.2 | 12.2 | 0.00 | 0.00 | 0.00 | 82 | 1012.8 |
| 20260506140038 | 61 | 157 | 6.1 | 12.2 | 0.00 | 0.00 | 0.00 | 83 | 1012.9 |
| 20260506135536 | 61 | 150 | 5.2 | 11.3 | 0.00 | 0.00 | 0.00 | 83 | 1012.9 |
| 20260506135036 | 61 | 170 | 6.1 | 12.2 | 0.00 | 0.00 | 0.00 | 83 | 1012.6 |
| 20260506134537 | 60 | 199 | 6.1 | 13.9 | 0.00 | 0.00 | 0.00 | 84 | 1012.6 |
| 20260506134035 | 60 | 159 | 6.1 | 13.9 | 0.00 | 0.00 | 0.00 | 84 | 1012.4 |
| 20260506133534 | 60 | 160 | 7.0 | 15.6 | 0.00 | 0.00 | 0.00 | 84 | 1012.6 |
| 20260506133034 | 60 | 194 | 6.1 | 15.6 | 0.00 | 0.00 | 0.00 | 84 | 1012.6 |
| 20260506132533 | 60 | 167 | 6.1 | 12.2 | 0.00 | 0.00 | 0.00 | 83 | 1012.5 |
| 20260506132032 | 60 | 153 | 5.2 | 12.2 | 0.00 | 0.00 | 0.00 | 84 | 1012.4 |
| 20260506131532 | 60 | 160 | 5.2 | 12.2 | 0.00 | 0.00 | 0.00 | 85 | 1012.4 |
| 20260506131032 | 60 | 89 | 5.2 | 12.2 | 0.00 | 0.00 | 0.00 | 85 | 1012.6 |
| 20260506130532 | 60 | 171 | 5.2 | 13.0 | 0.00 | 0.00 | 0.00 | 85 | 1012.6 |
| 20260506130031 | 60 | 243 | 5.2 | 13.0 | 0.00 | 0.00 | 0.00 | 85 | 1012.7 |
| 20260506125528 | 60 | 214 | 5.2 | 12.2 | 0.00 | 0.00 | 0.00 | 85 | 1012.7 |
| 20260506125029 | 59 | 165 | 6.1 | 13.0 | 0.00 | 0.00 | 0.00 | 86 | 1012.6 |
| 20260506124528 | 59 | 159 | 6.1 | 13.0 | 0.00 | 0.00 | 0.00 | 86 | 1012.6 |
| 20260506124027 | 59 | 173 | 6.1 | 13.0 | 0.00 | 0.00 | 0.00 | 86 | 1012.5 |
| 20260506123529 | 59 | 153 | 4.3 | 9.6 | 0.00 | 0.00 | 0.00 | 86 | 1012.6 |
| 20260506123028 | 59 | 152 | 4.3 | 11.3 | 0.00 | 0.00 | 0.00 | 87 | 1012.5 |
| 20260506122528 | 58 | 161 | 5.2 | 11.3 | 0.00 | 0.00 | 0.00 | 88 | 1012.8 |
| 20260506122024 | 58 | 188 | 5.2 | 11.3 | 0.00 | 0.00 | 0.00 | 88 | 1013.0 |
| 20260506121524 | 58 | 150 | 5.2 | 11.3 | 0.00 | 0.00 | 0.00 | 88 | 1013.0 |
| 20260506121024 | 58 | 209 | 5.2 | 10.4 | 0.00 | 0.00 | 0.00 | 88 | 1012.9 |
| 20260506120524 | 58 | 107 | 5.2 | 9.6 | 0.00 | 0.00 | 0.00 | 88 | 1013.0 |
| 20260506120022 | 58 | 200 | 4.3 | 12.2 | 0.00 | 0.00 | 0.00 | 88 | 1012.9 |
| 20260506115522 | 58 | 194 | 4.3 | 12.2 | 0.00 | 0.00 | 0.00 | 87 | 1012.9 |
| 20260506115020 | 58 | 174 | 4.3 | 12.2 | 0.00 | 0.00 | 0.00 | 87 | 1013.1 |
| 20260506114521 | 58 | 161 | 4.3 | 13.9 | 0.00 | 0.00 | 0.00 | 88 | 1012.9 |
| 20260506114021 | 58 | 172 | 5.2 | 13.9 | 0.00 | 0.00 | 0.00 | 88 | 1013.0 |
| 20260506113518 | 58 | 257 | 4.3 | 12.2 | 0.00 | 0.00 | 0.00 | 88 | 1012.9 |
| 20260506113019 | 58 | 190 | 4.3 | 11.3 | 0.00 | 0.00 | 0.00 | 89 | 1012.9 |
| 20260506112522 | 58 | 158 | 5.2 | 17.4 | 0.00 | 0.00 | 0.00 | 89 | 1012.9 |
| 20260506112017 | 58 | 182 | 4.3 | 17.4 | 0.00 | 0.00 | 0.00 | 89 | 1012.9 |
| 20260506111516 | 58 | 243 | 4.3 | 11.3 | 0.00 | 0.00 | 0.00 | 90 | 1013.0 |
| 20260506111019 | 57 | 151 | 4.3 | 11.3 | 0.00 | 0.00 | 0.00 | 90 | 1012.9 |
| 20260506110515 | 57 | 169 | 4.3 | 10.4 | 0.00 | 0.00 | 0.00 | 90 | 1012.8 |
| 20260506110016 | 57 | 144 | 4.3 | 12.2 | 0.00 | 0.00 | 0.00 | 90 | 1012.9 |
| 20260506105515 | 57 | 181 | 4.3 | 12.2 | 0.00 | 0.00 | 0.00 | 90 | 1012.8 |
| 20260506105015 | 57 | 243 | 4.3 | 10.4 | 0.00 | 0.00 | 0.00 | 91 | 1012.9 |
| 20260506104515 | 57 | 154 | 4.3 | 9.6 | 0.00 | 0.00 | 0.00 | 91 | 1012.8 |
| 20260506104004 | 57 | 255 | 4.3 | 9.6 | 0.00 | 0.00 | 0.00 | 91 | 1012.8 |
| 20260506103503 | 57 | 163 | 3.5 | 8.7 | 0.00 | 0.00 | 0.00 | 91 | 1012.8 |
| 20260506103001 | 56 | 227 | 3.5 | 7.8 | 0.00 | 0.00 | 0.00 | 92 | 1012.8 |
| 20260506102501 | 56 | 157 | 4.3 | 9.6 | 0.00 | 0.00 | 0.00 | 92 | 1012.7 |
| 20260506102000 | 56 | 178 | 4.3 | 9.6 | 0.00 | 0.00 | 0.00 | 92 | 1012.9 |